Jua Kali — 2EPI4 — position and weather

sailwx.info

Track history (hours):
 
Tides and Currents Weather Stations Pressure Air Temp Water Temp Dewpoint Dewpoint Depression Visibility Wind Speed Wind Dir Waves Ship Positions

Jua Kali

Last reported at 2017-Nov-19 13:59 UTC. Time now 2017-Nov-23 22:07 UTC.
Position N 28°00' W 015°21'.

Length 13 m.

Type: Sailing vessel. MMSI: 235087061.

Date/timePositionNaut miles runAvg speedWind from/ knotsBaromVisibWave heightAir tempDewpointWater temp
2017-Nov-19 13:59N 28°00' W 015°21'3 6.7
2017-Nov-19 13:30N 28°03' W 015°23'3 5.1
2017-Nov-19 12:59N 28°06' W 015°24'2 3.4
2017-Nov-19 12:28N 28°07' W 015°25'1 1.2
2017-Nov-19 11:58N 28°07' W 015°24'0 0.1
2017-Nov-19 11:27N 28°07' W 015°24'1 2.7
2017-Nov-19 10:54N 28°08' W 015°26'0 0.0
2017-Nov-19 10:21N 28°08' W 015°26'0 0.0
2017-Nov-19 09:57N 28°08' W 015°26'0 0.0
2017-Nov-19 09:27N 28°08' W 015°26'0 0.0
2017-Nov-19 08:57N 28°08' W 015°26'0 0.0
2017-Nov-19 08:24N 28°08' W 015°26'0 0.0
2017-Nov-19 07:57N 28°08' W 015°26'0 0.0
2017-Nov-18 18:21N 28°08' W 015°26'0 0.0
2017-Nov-18 17:54N 28°08' W 015°26'0 0.0
2017-Nov-18 16:25N 28°08' W 015°26'0 0.0
2017-Nov-18 15:58N 28°08' W 015°26'0 0.0
2017-Nov-18 15:28N 28°08' W 015°26'0 0.0
2017-Nov-17 18:05N 28°08' W 015°26'0 0.0
2017-Nov-17 17:50N 28°08' W 015°26'0 0.0
2017-Nov-17 17:20N 28°08' W 015°26'0 0.0
2017-Nov-17 16:50N 28°08' W 015°26'0 0.0
2017-Nov-17 16:20N 28°08' W 015°26'0 0.0
2017-Nov-17 15:53N 28°08' W 015°26'0 0.0
2017-Nov-17 15:20N 28°08' W 015°26'0 0.0
2017-Nov-17 14:53N 28°08' W 015°26'0 0.0
2017-Nov-17 14:26N 28°08' W 015°26'0 0.0
2017-Nov-17 13:57N 28°08' W 015°26'0 0.0
2017-Nov-17 13:26N 28°08' W 015°26'0 0.0
2017-Nov-17 12:56N 28°08' W 015°26'0 0.0
2017-Nov-17 12:27N 28°08' W 015°26'0 0.0
2017-Nov-17 12:00N 28°08' W 015°26'0 0.0
2017-Nov-17 11:29N 28°08' W 015°26'0 0.0
2017-Nov-17 10:59N 28°08' W 015°26'0 0.0
2017-Nov-17 10:29N 28°08' W 015°26'0 0.0
2017-Nov-16 16:08N 28°08' W 015°26'0 0.0
2017-Nov-16 15:58N 28°08' W 015°26'2 2.9
2017-Nov-16 15:26N 28°07' W 015°24'1 3.0
2017-Nov-16 14:57N 28°08' W 015°23'0 0.7
2017-Nov-16 14:26N 28°07' W 015°22'0 0.5
2017-Nov-16 13:55N 28°08' W 015°22'3 6.3
2017-Nov-16 13:30N 28°08' W 015°25'0 0.0
2017-Nov-15 19:34N 28°08' W 015°26'0 0.0
2017-Nov-15 19:28N 28°08' W 015°26'0 0.0
2017-Nov-15 18:49N 28°08' W 015°26'0 0.0
2017-Nov-15 18:19N 28°08' W 015°26'0 0.0
2017-Nov-15 17:52N 28°08' W 015°26'0 0.0
2017-Nov-15 17:22N 28°08' W 015°26'0 0.0
2017-Nov-15 15:46N 28°08' W 015°26'0 1.1
2017-Nov-15 15:30N 28°08' W 015°25'2 4.6
2017-Nov-15 15:00N 28°08' W 015°23'2 4.8
2017-Nov-15 14:30N 28°10' W 015°21'1 2.6
2017-Nov-15 13:59N 28°09' W 015°20'1 1.1
2017-Nov-15 13:30N 28°09' W 015°20'3 6.0
2017-Nov-15 13:01N 28°06' W 015°19'2 4.1
2017-Nov-15 12:30N 28°07' W 015°21'2 4.7
2017-Nov-15 11:59N 28°07' W 015°23'2 3.8
2017-Nov-15 11:29N 28°08' W 015°25'0 0.2
2017-Nov-15 11:00N 28°08' W 015°26'0 0.0
2017-Nov-15 10:30N 28°08' W 015°26'0 0.0
2017-Nov-15 10:00N 28°08' W 015°26'0 0.0
2017-Nov-14 14:18N 28°08' W 015°26'0 0.0
2017-Nov-14 14:00N 28°08' W 015°26'0 0.0
2017-Nov-14 13:27N 28°08' W 015°26'0 0.0
2017-Nov-14 13:00N 28°08' W 015°26'0 0.0
2017-Nov-14 12:30N 28°08' W 015°26'0 0.0
2017-Nov-14 11:45N 28°08' W 015°26'0 0.0
2017-Nov-14 11:21N 28°08' W 015°26'0 0.0
2017-Nov-14 10:51N 28°08' W 015°26'0 0.0
2017-Nov-14 10:21N 28°08' W 015°26'0 0.0
2017-Nov-14 09:51N 28°08' W 015°26'0 0.0
2017-Nov-14 09:21N 28°08' W 015°26'0 0.0
2017-Nov-14 08:51N 28°08' W 015°26'0 0.0
2017-Nov-14 08:21N 28°08' W 015°26'  
Track history (hours):
 
Tides and Currents Weather Stations Pressure Air Temp Water Temp Dewpoint Dewpoint Depression Visibility Wind Speed Wind Dir Waves Ship Positions

Jua Kali

Last reported at 2017-Nov-19 13:59 UTC. Time now 2017-Nov-23 22:07 UTC.
Position N 28°00' W 015°21'.

Length 13 m.

Type: Sailing vessel. MMSI: 235087061.

Date/timePositionNaut miles runAvg speedWind from/ knotsBaromVisibWave heightAir tempDewpointWater temp
2017-Nov-19 13:59N 28°00' W 015°21'3 6.7
2017-Nov-19 13:30N 28°03' W 015°23'3 5.1
2017-Nov-19 12:59N 28°06' W 015°24'2 3.4
2017-Nov-19 12:28N 28°07' W 015°25'1 1.2
2017-Nov-19 11:58N 28°07' W 015°24'0 0.1
2017-Nov-19 11:27N 28°07' W 015°24'1 2.7
2017-Nov-19 10:54N 28°08' W 015°26'0 0.0
2017-Nov-19 10:21N 28°08' W 015°26'0 0.0
2017-Nov-19 09:57N 28°08' W 015°26'0 0.0
2017-Nov-19 09:27N 28°08' W 015°26'0 0.0
2017-Nov-19 08:57N 28°08' W 015°26'0 0.0
2017-Nov-19 08:24N 28°08' W 015°26'0 0.0
2017-Nov-19 07:57N 28°08' W 015°26'0 0.0
2017-Nov-18 18:21N 28°08' W 015°26'0 0.0
2017-Nov-18 17:54N 28°08' W 015°26'0 0.0
2017-Nov-18 16:25N 28°08' W 015°26'0 0.0
2017-Nov-18 15:58N 28°08' W 015°26'0 0.0
2017-Nov-18 15:28N 28°08' W 015°26'0 0.0
2017-Nov-17 18:05N 28°08' W 015°26'0 0.0
2017-Nov-17 17:50N 28°08' W 015°26'0 0.0
2017-Nov-17 17:20N 28°08' W 015°26'0 0.0
2017-Nov-17 16:50N 28°08' W 015°26'0 0.0
2017-Nov-17 16:20N 28°08' W 015°26'0 0.0
2017-Nov-17 15:53N 28°08' W 015°26'0 0.0
2017-Nov-17 15:20N 28°08' W 015°26'0 0.0
2017-Nov-17 14:53N 28°08' W 015°26'0 0.0
2017-Nov-17 14:26N 28°08' W 015°26'0 0.0
2017-Nov-17 13:57N 28°08' W 015°26'0 0.0
2017-Nov-17 13:26N 28°08' W 015°26'0 0.0
2017-Nov-17 12:56N 28°08' W 015°26'0 0.0
2017-Nov-17 12:27N 28°08' W 015°26'0 0.0
2017-Nov-17 12:00N 28°08' W 015°26'0 0.0
2017-Nov-17 11:29N 28°08' W 015°26'0 0.0
2017-Nov-17 10:59N 28°08' W 015°26'0 0.0
2017-Nov-17 10:29N 28°08' W 015°26'0 0.0
2017-Nov-16 16:08N 28°08' W 015°26'0 0.0
2017-Nov-16 15:58N 28°08' W 015°26'2 2.9
2017-Nov-16 15:26N 28°07' W 015°24'1 3.0
2017-Nov-16 14:57N 28°08' W 015°23'0 0.7
2017-Nov-16 14:26N 28°07' W 015°22'0 0.5
2017-Nov-16 13:55N 28°08' W 015°22'3 6.3
2017-Nov-16 13:30N 28°08' W 015°25'0 0.0
2017-Nov-15 19:34N 28°08' W 015°26'0 0.0
2017-Nov-15 19:28N 28°08' W 015°26'0 0.0
2017-Nov-15 18:49N 28°08' W 015°26'0 0.0
2017-Nov-15 18:19N 28°08' W 015°26'0 0.0
2017-Nov-15 17:52N 28°08' W 015°26'0 0.0
2017-Nov-15 17:22N 28°08' W 015°26'0 0.0
2017-Nov-15 15:46N 28°08' W 015°26'0 1.1
2017-Nov-15 15:30N 28°08' W 015°25'2 4.6
2017-Nov-15 15:00N 28°08' W 015°23'2 4.8
2017-Nov-15 14:30N 28°10' W 015°21'1 2.6
2017-Nov-15 13:59N 28°09' W 015°20'1 1.1
2017-Nov-15 13:30N 28°09' W 015°20'3 6.0
2017-Nov-15 13:01N 28°06' W 015°19'2 4.1
2017-Nov-15 12:30N 28°07' W 015°21'2 4.7
2017-Nov-15 11:59N 28°07' W 015°23'2 3.8
2017-Nov-15 11:29N 28°08' W 015°25'0 0.2
2017-Nov-15 11:00N 28°08' W 015°26'0 0.0
2017-Nov-15 10:30N 28°08' W 015°26'0 0.0
2017-Nov-15 10:00N 28°08' W 015°26'0 0.0
2017-Nov-14 14:18N 28°08' W 015°26'0 0.0
2017-Nov-14 14:00N 28°08' W 015°26'0 0.0
2017-Nov-14 13:27N 28°08' W 015°26'0 0.0
2017-Nov-14 13:00N 28°08' W 015°26'0 0.0
2017-Nov-14 12:30N 28°08' W 015°26'0 0.0
2017-Nov-14 11:45N 28°08' W 015°26'0 0.0
2017-Nov-14 11:21N 28°08' W 015°26'0 0.0
2017-Nov-14 10:51N 28°08' W 015°26'0 0.0
2017-Nov-14 10:21N 28°08' W 015°26'0 0.0
2017-Nov-14 09:51N 28°08' W 015°26'0 0.0
2017-Nov-14 09:21N 28°08' W 015°26'0 0.0
2017-Nov-14 08:51N 28°08' W 015°26'0 0.0
2017-Nov-14 08:21N 28°08' W 015°26'  

Dump ship's entire track history